Time;durP1;ratioP1;P1;durP2;ratioP2;P2;SDS_P1;SDS_P2;PMS_P1;PMS_P2;Temp;Humidity;BMP_temperature;BMP_pressure;BME280_temperature;BME280_humidity;BME280_pressure;Samples;Min_cycle;Max_cycle;Signal;HPM_P1;HPM_P2
2023/05/05 00:02:18;;;;;;;3.60;2.40;;;;;;;11.16;61.91;99950.27;107468;1257;73694;-39
2023/05/05 00:04:45;;;;;;;3.40;2.50;;;;;;;11.19;61.91;99953.54;107497;1257;62734;-40
2023/05/05 00:07:14;;;;;;;3.90;2.50;;;;;;;11.20;61.82;99955.58;107468;1252;62840;-39
2023/05/05 00:09:41;;;;;;;3.30;2.40;;;;;;;11.14;61.68;99949.06;107525;1253;73910;-39
2023/05/05 00:12:09;;;;;;;3.10;2.40;;;;;;;11.15;61.90;99963.83;106719;1253;1003726;-39
2023/05/05 00:14:36;;;;;;;4.40;2.40;;;;;;;11.14;61.89;99966.11;107455;1253;74732;-39
2023/05/05 00:17:04;;;;;;;3.90;2.50;;;;;;;11.10;61.97;99961.52;107350;1253;62663;-39
2023/05/05 00:19:31;;;;;;;5.90;2.40;;;;;;;11.06;62.06;99956.37;107426;1253;62367;-39
2023/05/05 00:21:58;;;;;;;3.80;2.50;;;;;;;11.03;62.31;99957.30;107379;1254;75723;-39
2023/05/05 00:24:25;;;;;;;2.80;1.80;;;;;;;10.98;62.37;99962.67;107360;1254;69084;-39
2023/05/05 00:26:53;;;;;;;5.30;2.30;;;;;;;10.97;62.45;99958.30;107436;1252;74991;-39
2023/05/05 00:29:20;;;;;;;4.30;2.40;;;;;;;10.96;62.45;99956.94;107350;1253;62742;-39
2023/05/05 00:31:50;;;;;;;4.50;2.10;;;;;;;10.94;62.72;99956.45;107579;1252;61177;-39
2023/05/05 00:34:18;;;;;;;6.00;2.20;;;;;;;10.93;62.82;99957.29;107482;1253;74947;-39
2023/05/05 00:36:46;;;;;;;3.30;2.50;;;;;;;10.92;62.60;99954.59;107356;1253;70269;-39
2023/05/05 00:39:13;;;;;;;2.70;2.00;;;;;;;10.88;62.74;99956.31;107376;1253;74972;-39
2023/05/05 00:41:41;;;;;;;3.40;2.10;;;;;;;10.87;62.87;99960.14;107467;1252;61420;-39
2023/05/05 00:44:08;;;;;;;4.50;2.20;;;;;;;10.85;63.01;99958.85;107486;1253;62488;-39
2023/05/05 00:46:36;;;;;;;6.40;2.70;;;;;;;10.80;63.01;99957.94;107456;1253;74041;-39
2023/05/05 00:49:03;;;;;;;4.00;2.50;;;;;;;10.72;63.17;99957.11;107498;1253;70242;-39
2023/05/05 00:51:30;;;;;;;2.20;1.80;;;;;;;10.68;63.48;99955.58;107491;1257;75184;-39
2023/05/05 00:53:58;;;;;;;2.80;2.30;;;;;;;10.66;63.67;99950.50;107494;1256;62548;-39
2023/05/05 00:56:26;;;;;;;3.50;2.40;;;;;;;10.62;63.84;99947.44;107340;1253;61123;-39
2023/05/05 00:58:53;;;;;;;4.50;2.30;;;;;;;10.57;64.16;99946.06;107390;1253;75648;-39
2023/05/05 01:01:20;;;;;;;5.10;2.60;;;;;;;10.56;64.38;99945.39;107381;1258;70257;-39
2023/05/05 01:03:47;;;;;;;4.90;2.10;;;;;;;10.54;64.56;99943.73;107340;1260;74984;-39
2023/05/05 01:06:36;;;;;;;3.00;2.60;;;;;;;10.53;64.66;99943.15;107411;1253;62125;-39
2023/05/05 01:09:16;;;;;;;4.70;2.50;;;;;;;10.50;64.73;99945.16;107449;1253;61134;-39
2023/05/05 01:12:09;;;;;;;4.30;2.30;;;;;;;10.43;65.05;99938.52;107431;1253;75613;-39
2023/05/05 01:14:46;;;;;;;4.80;2.50;;;;;;;10.42;65.19;99942.37;107499;1253;70267;-39
2023/05/05 01:17:16;;;;;;;3.20;2.40;;;;;;;10.42;65.45;99942.86;107451;1253;74828;-39
2023/05/05 01:19:47;;;;;;;3.60;2.20;;;;;;;10.44;65.62;99944.14;107370;1253;60602;-39
2023/05/05 01:22:14;;;;;;;;;;;;;;;10.46;65.69;99947.52;107431;1253;62181;-39
2023/05/05 01:25:03;;;;;;;5.40;2.90;;;;;;;10.40;65.98;99946.20;107525;1256;76123;-39
2023/05/05 01:27:46;;;;;;;4.70;2.60;;;;;;;10.36;66.22;99948.08;107453;1253;69463;-39
2023/05/05 01:31:02;;;;;;;3.50;2.90;;;;;;;10.34;66.31;99948.65;107591;1251;73773;-39
2023/05/05 01:33:33;;;;;;;3.00;2.20;;;;;;;10.34;66.54;99949.67;107610;1254;63473;-39
2023/05/05 01:36:04;;;;;;;3.20;2.20;;;;;;;10.34;66.72;99954.39;107600;1254;62908;-39
2023/05/05 01:38:35;;;;;;;3.90;2.70;;;;;;;10.35;66.96;99954.81;107619;1257;75907;-39
2023/05/05 01:41:06;;;;;;;3.40;2.60;;;;;;;10.38;66.75;99951.94;107538;1257;70079;-39
2023/05/05 01:43:34;;;;;;;3.40;2.50;;;;;;;10.35;66.76;99952.64;107549;1253;74844;-39
2023/05/05 01:46:01;;;;;;;3.20;2.80;;;;;;;10.33;66.86;99952.88;107518;1251;61314;-39
2023/05/05 01:48:28;;;;;;;3.30;2.40;;;;;;;10.26;67.04;99951.73;107451;1257;62341;-39
2023/05/05 01:50:56;;;;;;;2.80;2.40;;;;;;;10.24;67.19;99950.36;107419;1251;76674;-39
2023/05/05 01:53:23;;;;;;;3.90;2.70;;;;;;;10.23;67.29;99945.62;107421;1259;69956;-39
2023/05/05 01:55:50;;;;;;;4.20;2.40;;;;;;;10.22;67.37;99947.05;107674;1251;74943;-39
2023/05/05 01:58:18;;;;;;;5.00;2.80;;;;;;;10.20;67.55;99947.08;107661;1251;61301;-39
2023/05/05 02:00:45;;;;;;;5.50;2.70;;;;;;;10.21;67.37;99950.02;107383;1253;60689;-38
2023/05/05 02:03:12;;;;;;;3.10;2.30;;;;;;;10.20;67.31;99951.26;107676;1251;76139;-39
2023/05/05 02:05:39;;;;;;;4.20;2.90;;;;;;;10.20;67.20;99957.73;107539;1254;70155;-39
2023/05/05 02:08:08;;;;;;;3.50;2.30;;;;;;;10.22;67.32;99957.19;107623;1251;72182;-39
2023/05/05 02:10:37;;;;;;;3.20;2.40;;;;;;;10.28;67.13;99959.55;107519;1251;63176;-38
2023/05/05 02:13:04;;;;;;;4.10;2.30;;;;;;;10.32;66.85;99966.86;107685;1254;62023;-39
2023/05/05 02:15:32;;;;;;;4.80;2.20;;;;;;;10.32;66.68;99966.95;107685;1251;76099;-39
2023/05/05 02:18:00;;;;;;;5.10;2.40;;;;;;;10.30;66.63;99967.27;107750;1251;67118;-39
2023/05/05 02:20:27;;;;;;;3.60;2.60;;;;;;;10.27;66.70;99965.55;107485;1254;74041;-38
2023/05/05 02:22:54;;;;;;;3.90;2.60;;;;;;;10.23;66.70;99960.55;107381;1254;60386;-39
2023/05/05 02:25:22;;;;;;;4.60;2.60;;;;;;;10.20;66.85;99959.55;107408;1254;63026;-39
2023/05/05 02:27:49;;;;;;;4.50;2.50;;;;;;;10.18;66.92;99955.36;107599;1251;75687;-38
2023/05/05 02:30:17;;;;;;;4.30;2.20;;;;;;;10.19;66.98;99951.23;107421;1251;69057;-39
2023/05/05 02:32:52;;;;;;;6.50;2.60;;;;;;;10.22;67.01;99945.36;107502;1257;73358;-39
2023/05/05 02:35:22;;;;;;;4.10;2.60;;;;;;;10.21;67.17;99938.05;107498;1251;61020;-39
2023/05/05 02:37:58;;;;;;;3.90;2.80;;;;;;;10.16;67.46;99936.20;107644;1251;60502;-39
2023/05/05 02:40:26;;;;;;;5.30;2.90;;;;;;;10.13;67.85;99947.30;107529;1251;77486;-39
2023/05/05 02:42:55;;;;;;;3.00;2.40;;;;;;;10.09;68.21;99962.58;107569;1251;68661;-38
2023/05/05 02:45:26;;;;;;;3.40;2.20;;;;;;;10.05;68.82;99960.16;107603;1254;73001;-38
2023/05/05 02:47:53;;;;;;;4.30;2.50;;;;;;;10.09;69.35;99959.55;107618;1251;61195;-38
2023/05/05 02:50:20;;;;;;;2.90;2.30;;;;;;;10.11;70.08;99960.48;107482;1254;62567;-38
2023/05/05 02:52:54;;;;;;;3.80;2.30;;;;;;;10.08;70.57;99958.36;107714;1251;74545;-38
2023/05/05 02:55:22;;;;;;;4.10;2.70;;;;;;;10.05;71.04;99959.92;107753;1251;67909;-38
2023/05/05 02:58:07;;;;;;;3.10;2.10;;;;;;;10.00;71.34;99955.57;107471;1254;74142;-38
2023/05/05 03:00:46;;;;;;;3.10;2.30;;;;;;;9.99;71.79;99947.35;107547;1254;60833;-38
2023/05/05 03:03:39;;;;;;;5.00;2.60;;;;;;;9.98;72.14;99945.68;107629;1252;61430;-38
2023/05/05 03:06:13;;;;;;;4.10;2.70;;;;;;;9.96;72.24;99949.41;107611;1256;74630;-38
2023/05/05 03:08:45;;;;;;;4.30;2.40;;;;;;;9.88;72.66;99953.76;107514;1254;70228;-38
2023/05/05 03:11:35;;;;;;;4.10;2.20;;;;;;;9.81;72.87;99958.39;107618;1251;73715;-38
2023/05/05 03:14:07;;;;;;;3.30;2.50;;;;;;;9.85;73.27;99961.46;107529;1254;62175;-38
2023/05/05 03:16:35;;;;;;;4.10;2.40;;;;;;;9.87;73.10;99958.52;107535;1254;62541;-38
2023/05/05 03:19:03;;;;;;;3.30;2.40;;;;;;;9.87;73.11;99958.81;107499;1251;74478;-38
2023/05/05 03:21:31;;;;;;;3.00;2.30;;;;;;;9.88;73.30;99954.82;107538;1254;69896;-38
2023/05/05 03:23:58;;;;;;;4.60;2.30;;;;;;;9.90;73.27;99953.10;107507;1253;73786;-38
2023/05/05 03:26:26;;;;;;;4.10;2.30;;;;;;;9.90;73.35;99956.67;107526;1253;63087;-38
2023/05/05 03:28:53;;;;;;;3.50;2.30;;;;;;;9.95;73.38;99958.67;107541;1254;60280;-38
2023/05/05 03:31:27;;;;;;;3.00;2.40;;;;;;;9.97;73.47;99960.83;107494;1253;72867;-38
2023/05/05 03:33:57;;;;;;;5.60;2.40;;;;;;;9.98;73.48;99959.84;107453;1253;67181;-38
2023/05/05 03:36:26;;;;;;;3.10;2.30;;;;;;;10.00;73.50;99955.89;107383;1253;71262;-38
2023/05/05 03:38:56;;;;;;;4.30;2.10;;;;;;;9.97;73.27;99950.30;107393;1257;62386;-38
2023/05/05 03:41:24;;;;;;;3.10;2.70;;;;;;;9.98;73.28;99947.09;107403;1253;60582;-38
2023/05/05 03:43:52;;;;;;;3.30;2.60;;;;;;;9.98;73.49;99946.92;107308;1252;76210;-38
2023/05/05 03:46:19;;;;;;;3.70;2.20;;;;;;;9.99;73.82;99948.82;107447;1253;70294;-38
2023/05/05 03:48:47;;;;;;;3.10;2.60;;;;;;;10.02;73.78;99949.77;107303;1256;71986;-38
2023/05/05 03:51:15;;;;;;;3.70;2.40;;;;;;;10.02;73.49;99952.94;107530;1254;61467;-38
2023/05/05 03:53:42;;;;;;;3.50;2.40;;;;;;;10.00;73.38;99953.73;107435;1253;60442;-39
2023/05/05 03:56:10;;;;;;;2.40;1.90;;;;;;;10.05;73.32;99955.73;107529;1257;74485;-38
2023/05/05 03:58:37;;;;;;;4.20;2.50;;;;;;;10.05;73.48;99959.77;107579;1252;67150;-38
2023/05/05 04:01:04;;;;;;;4.20;2.70;;;;;;;10.07;73.67;99958.24;107479;1253;73759;-38
2023/05/05 04:03:31;;;;;;;4.70;2.70;;;;;;;10.08;73.70;99959.84;107363;1255;61477;-39
2023/05/05 04:05:59;;;;;;;3.60;2.50;;;;;;;10.04;73.65;99955.95;107561;1253;60713;-39
2023/05/05 04:08:27;;;;;;;5.20;2.50;;;;;;;10.06;73.82;99956.15;107434;1253;73687;-39
2023/05/05 04:10:56;;;;;;;3.50;2.30;;;;;;;10.09;73.71;99952.92;107411;1253;68085;-39
2023/05/05 04:13:23;;;;;;;5.50;2.60;;;;;;;10.11;73.85;99957.59;107434;1254;73129;-39
2023/05/05 04:15:51;;;;;;;3.20;2.50;;;;;;;10.11;73.85;99962.58;107486;1253;60458;-39
2023/05/05 04:18:18;;;;;;;5.10;2.70;;;;;;;10.10;73.56;99969.20;107512;1252;60961;-38
2023/05/05 04:20:46;;;;;;;3.50;2.30;;;;;;;10.08;73.62;99973.14;107386;1252;75187;-38
2023/05/05 04:23:13;;;;;;;3.70;2.50;;;;;;;10.12;73.64;99983.51;107493;1252;68826;-38
2023/05/05 04:25:40;;;;;;;4.10;2.40;;;;;;;10.19;73.33;99988.46;107454;1254;71509;-38
2023/05/05 04:28:08;;;;;;;3.60;2.70;;;;;;;10.24;73.23;99990.33;107536;1253;61435;-39
2023/05/05 04:30:36;;;;;;;4.10;2.80;;;;;;;10.29;73.09;99985.20;107389;1253;60700;-38
2023/05/05 04:33:03;;;;;;;6.40;2.50;;;;;;;10.31;73.03;99986.73;107390;1253;72634;-39
2023/05/05 04:35:32;;;;;;;4.20;2.60;;;;;;;10.33;73.06;99987.44;107458;1253;69100;-38
2023/05/05 04:37:59;;;;;;;3.40;2.40;;;;;;;10.42;72.79;99986.60;107467;1254;72828;-39
2023/05/05 04:40:27;;;;;;;3.80;2.40;;;;;;;10.50;72.53;99986.34;107368;1256;60437;-39
2023/05/05 04:42:55;;;;;;;3.20;2.30;;;;;;;10.53;72.73;99985.21;107472;1253;61364;-38
2023/05/05 04:45:22;;;;;;;5.70;2.50;;;;;;;10.54;72.78;99980.69;107436;1253;73121;-39
2023/05/05 04:47:50;;;;;;;3.30;2.50;;;;;;;10.56;72.83;99979.55;107406;1253;68842;-38
2023/05/05 04:50:17;;;;;;;4.00;2.40;;;;;;;10.55;72.85;99976.69;107347;1254;73780;-39
2023/05/05 04:52:45;;;;;;;3.70;2.40;;;;;;;10.64;72.83;99976.92;107443;1253;61830;-38
2023/05/05 04:55:12;;;;;;;2.50;2.30;;;;;;;10.71;72.45;99981.15;107329;1254;61292;-39
2023/05/05 04:57:39;;;;;;;3.10;2.40;;;;;;;10.77;72.59;99986.98;107313;1254;75087;-39
2023/05/05 05:00:08;;;;;;;3.40;2.50;;;;;;;10.84;72.32;99989.66;107453;1254;68090;-39
2023/05/05 05:02:36;;;;;;;2.70;2.00;;;;;;;10.91;72.18;99992.72;107275;1254;74759;-39
2023/05/05 05:05:04;;;;;;;4.30;2.30;;;;;;;10.96;72.02;99989.98;107383;1258;63631;-39
2023/05/05 05:07:32;;;;;;;4.40;2.40;;;;;;;11.03;71.51;99988.40;107345;1260;60253;-39
2023/05/05 05:10:00;;;;;;;2.90;2.50;;;;;;;11.11;71.10;99990.55;107420;1254;74825;-39
2023/05/05 05:12:28;;;;;;;2.70;2.40;;;;;;;11.12;70.80;99992.13;107437;1254;70392;-42
2023/05/05 05:14:55;;;;;;;3.90;2.50;;;;;;;11.10;70.78;99994.31;107480;1253;73971;-39
2023/05/05 05:17:23;;;;;;;3.20;2.50;;;;;;;11.10;71.09;99997.11;107470;1254;61419;-39
2023/05/05 05:19:51;;;;;;;2.30;2.10;;;;;;;11.12;70.87;100002.05;107417;1253;62483;-39
2023/05/05 05:22:18;;;;;;;5.40;2.60;;;;;;;11.13;70.71;100005.17;107286;1253;75159;-39
2023/05/05 05:24:46;;;;;;;4.40;2.50;;;;;;;11.19;70.56;99999.13;107436;1253;67595;-39
2023/05/05 05:27:13;;;;;;;4.10;2.60;;;;;;;11.22;70.51;99997.60;107441;1253;73808;-39
2023/05/05 05:29:42;;;;;;;4.00;2.80;;;;;;;11.26;70.63;100001.03;107493;1254;61145;-39
2023/05/05 05:32:10;;;;;;;3.80;2.60;;;;;;;11.34;70.58;100006.35;107432;1257;60156;-39
2023/05/05 05:34:37;;;;;;;4.40;2.60;;;;;;;11.38;70.32;100004.04;107564;1252;73319;-39
2023/05/05 05:37:05;;;;;;;2.80;2.20;;;;;;;11.41;70.36;100003.35;107526;1253;68208;-39
2023/05/05 05:39:33;;;;;;;3.90;2.20;;;;;;;11.49;70.33;100004.34;107344;1253;73183;-39
2023/05/05 05:42:01;;;;;;;4.20;2.60;;;;;;;11.55;70.47;100003.64;107343;1260;61891;-39
2023/05/05 05:44:29;;;;;;;4.40;2.30;;;;;;;11.60;69.87;100008.96;107349;1253;60378;-39
2023/05/05 05:46:56;;;;;;;3.80;2.40;;;;;;;11.61;69.83;100013.80;107567;1253;76257;-39
2023/05/05 05:49:23;;;;;;;4.50;2.30;;;;;;;11.65;69.97;100023.90;107369;1253;66793;-39
2023/05/05 05:51:51;;;;;;;2.40;2.20;;;;;;;11.68;69.68;100017.63;107474;1255;72808;-39
2023/05/05 05:54:18;;;;;;;3.70;2.50;;;;;;;11.72;69.62;100015.48;107448;1253;63296;-39
2023/05/05 05:56:45;;;;;;;3.10;2.20;;;;;;;11.80;69.35;100014.44;107301;1253;62398;-39
2023/05/05 05:59:12;;;;;;;5.10;2.30;;;;;;;11.84;69.16;100013.38;107319;1253;74849;-39
2023/05/05 06:01:40;;;;;;;4.50;2.50;;;;;;;11.88;69.31;100012.62;107471;1253;66696;-39
2023/05/05 06:04:07;;;;;;;3.40;2.10;;;;;;;11.91;68.80;100010.59;107453;1253;71131;-39
2023/05/05 06:06:36;;;;;;;4.10;2.50;;;;;;;11.93;68.19;100014.90;107397;1253;60452;-39
2023/05/05 06:09:04;;;;;;;3.60;2.30;;;;;;;11.90;68.11;100012.06;107654;1253;59578;-39
2023/05/05 06:11:33;;;;;;;2.70;2.10;;;;;;;11.86;67.53;100011.56;107312;1252;72727;-39
2023/05/05 06:14:01;;;;;;;3.80;2.20;;;;;;;11.89;67.49;100013.88;107528;1253;69107;-39
2023/05/05 06:16:28;;;;;;;5.80;2.10;;;;;;;11.91;67.60;100017.58;107443;1254;71491;-39
2023/05/05 06:18:56;;;;;;;4.70;2.50;;;;;;;11.89;67.59;100012.81;107434;1253;61514;-39
2023/05/05 06:21:23;;;;;;;3.70;1.90;;;;;;;11.90;67.29;100015.39;107502;1253;62214;-39
2023/05/05 06:23:51;;;;;;;2.90;2.20;;;;;;;11.88;67.62;100012.16;107307;1253;75245;-39
2023/05/05 06:26:18;;;;;;;4.20;2.00;;;;;;;11.85;67.13;100011.46;107476;1253;68901;-39
2023/05/05 06:28:45;;;;;;;3.10;1.90;;;;;;;11.81;66.14;100010.43;107485;1254;74702;-39
2023/05/05 06:31:13;;;;;;;3.60;2.10;;;;;;;11.78;66.31;100011.83;107556;1255;61146;-39
2023/05/05 06:33:40;;;;;;;4.10;2.00;;;;;;;11.77;66.33;100010.94;107507;1253;62692;-39
2023/05/05 06:36:08;;;;;;;5.60;2.30;;;;;;;11.77;64.79;100008.30;107391;1258;75949;-39
2023/05/05 06:38:35;;;;;;;2.80;1.90;;;;;;;11.77;64.33;100005.59;107503;1253;68520;-39
2023/05/05 06:41:04;;;;;;;5.90;2.00;;;;;;;11.75;63.78;100005.80;107578;1257;74684;-38
2023/05/05 06:43:31;;;;;;;2.40;1.90;;;;;;;11.74;63.16;100008.64;107313;1253;62539;-38
2023/05/05 06:46:00;;;;;;;2.40;1.80;;;;;;;11.72;62.99;100009.88;107285;1253;60323;-39
2023/05/05 06:48:27;;;;;;;4.10;2.50;;;;;;;11.74;62.85;100011.35;107417;1253;75421;-38
2023/05/05 06:50:55;;;;;;;8.50;5.90;;;;;;;11.85;63.43;100010.92;107512;1253;69578;-37
2023/05/05 06:53:22;;;;;;;33.50;11.30;;;;;;;11.94;62.49;100008.35;107463;1252;74965;-37
2023/05/05 06:55:49;;;;;;;11.00;5.70;;;;;;;12.00;62.51;100003.66;107349;1253;61587;-37
2023/05/05 06:58:17;;;;;;;10.80;4.70;;;;;;;12.06;62.14;100000.33;107385;1253;61650;-37
2023/05/05 07:00:44;;;;;;;5.80;2.90;;;;;;;12.14;61.22;99994.45;107524;1253;74407;-37
2023/05/05 07:03:11;;;;;;;4.50;2.90;;;;;;;12.18;60.71;99998.34;107491;1253;70285;-37
2023/05/05 07:05:38;;;;;;;3.80;2.20;;;;;;;12.21;60.89;99999.48;107435;1257;73203;-37
2023/05/05 07:08:07;;;;;;;3.50;2.20;;;;;;;12.22;60.85;100003.23;107459;1254;62246;-37
2023/05/05 07:10:35;;;;;;;2.00;1.70;;;;;;;12.23;60.55;100003.27;107488;1253;61110;-37
2023/05/05 07:13:02;;;;;;;3.60;2.00;;;;;;;12.25;60.13;100004.40;107309;1253;75129;-37
2023/05/05 07:15:29;;;;;;;2.40;1.90;;;;;;;12.29;58.88;100006.43;107569;1253;70472;-37
2023/05/05 07:17:57;;;;;;;6.40;1.90;;;;;;;12.36;59.98;100012.23;107514;1257;73181;-37
2023/05/05 07:20:24;;;;;;;3.00;1.70;;;;;;;12.49;59.17;100016.27;107264;1253;305933;-37
2023/05/05 07:24:25;;;;;;;5.70;1.90;;;;;;;12.76;58.97;100014.27;104142;1291;600953;-38
2023/05/05 07:26:52;;;;;;;5.40;1.90;;;;;;;12.90;57.73;100006.16;106580;1266;60545;-38
2023/05/05 07:29:20;;;;;;;2.90;1.90;;;;;;;13.07;55.56;100003.78;106499;1266;60561;-38
2023/05/05 07:31:47;;;;;;;6.50;1.90;;;;;;;13.24;54.39;100004.90;106671;1266;74558;-38
2023/05/05 07:34:14;;;;;;;5.50;1.70;;;;;;;13.41;51.07;99999.83;106635;1266;69903;-38
2023/05/05 07:36:41;;;;;;;4.40;1.50;;;;;;;13.51;50.04;99999.92;106645;1270;74405;-38
2023/05/05 07:39:08;;;;;;;3.70;1.90;;;;;;;13.62;49.87;100002.05;106507;1269;177906;-38
2023/05/05 07:41:36;;;;;;;4.20;1.80;;;;;;;13.71;46.61;99995.43;106678;1264;62235;-38
2023/05/05 07:44:03;;;;;;;2.10;1.60;;;;;;;13.74;46.04;99998.83;106720;1264;74533;-38
2023/05/05 07:46:30;;;;;;;2.90;1.60;;;;;;;13.68;46.31;100004.95;106721;1269;69086;-38
2023/05/05 07:48:57;;;;;;;3.00;1.70;;;;;;;13.57;46.51;100004.60;106724;1264;75039;-36
2023/05/05 07:51:25;;;;;;;4.50;1.90;;;;;;;13.44;46.60;100002.23;106746;1267;62047;-37
2023/05/05 07:53:53;;;;;;;3.40;1.90;;;;;;;13.31;47.26;99991.56;106731;1267;62199;-37
2023/05/05 07:56:20;;;;;;;2.10;1.60;;;;;;;13.31;48.28;100002.05;106740;1265;75070;-37
2023/05/05 07:58:47;;;;;;;3.20;1.60;;;;;;;13.29;48.32;100004.13;106827;1267;69336;-37
2023/05/05 08:01:15;;;;;;;9.10;2.10;;;;;;;13.35;48.62;100007.52;106667;1267;74873;-37
2023/05/05 08:03:42;;;;;;;2.70;1.50;;;;;;;13.46;48.68;100004.83;106695;1267;62078;-36
2023/05/05 08:06:10;;;;;;;5.50;1.90;;;;;;;13.59;47.49;99999.20;106614;1266;61860;-37
2023/05/05 08:08:37;;;;;;;3.60;1.70;;;;;;;13.64;46.66;100000.46;106684;1264;75215;-37
2023/05/05 08:11:05;;;;;;;2.80;1.70;;;;;;;13.62;46.30;99998.63;106669;1266;69990;-37
2023/05/05 08:13:33;;;;;;;3.40;1.80;;;;;;;13.59;46.33;99998.57;106673;1266;74800;-37
2023/05/05 08:16:00;;;;;;;2.20;2.00;;;;;;;13.56;46.81;99993.93;106669;1265;61175;-37
2023/05/05 08:18:27;;;;;;;3.90;1.70;;;;;;;13.58;47.04;99997.16;107105;1259;62656;-37
2023/05/05 08:20:55;;;;;;;5.50;1.90;;;;;;;13.61;46.75;99995.36;107088;1257;74390;-37
2023/05/05 08:23:22;;;;;;;4.40;1.80;;;;;;;13.68;47.44;99997.63;107104;1257;69312;-37
2023/05/05 08:25:51;;;;;;;2.20;1.50;;;;;;;13.78;47.44;99995.40;107229;1257;72970;-37
2023/05/05 08:28:18;;;;;;;3.00;1.60;;;;;;;13.94;47.13;99998.45;107223;1257;59781;-37
2023/05/05 08:30:45;;;;;;;3.20;1.60;;;;;;;14.10;46.73;99994.18;107220;1257;60712;-37
2023/05/05 08:33:13;;;;;;;3.40;1.60;;;;;;;14.31;47.29;99993.16;107185;1257;75329;-37
2023/05/05 08:35:41;;;;;;;3.30;1.90;;;;;;;14.59;47.46;99991.37;107182;1258;67644;-37
2023/05/05 08:38:09;;;;;;;4.20;1.70;;;;;;;14.90;47.30;99990.48;107226;1260;72788;-37
2023/05/05 08:40:38;;;;;;;3.20;1.80;;;;;;;15.18;44.77;99985.65;107120;1260;59631;-37
2023/05/05 08:43:05;;;;;;;4.10;1.60;;;;;;;15.36;43.69;99985.73;107254;1257;61491;-37
2023/05/05 08:45:32;;;;;;;2.60;2.00;;;;;;;15.45;42.94;99983.56;107231;1257;75497;-37
2023/05/05 08:48:00;;;;;;;16.20;3.80;;;;;;;15.55;44.39;99986.88;107226;1257;69131;-37
2023/05/05 08:50:28;;;;;;;5.30;1.90;;;;;;;15.70;44.23;99984.13;107241;1257;73437;-37
2023/05/05 08:53:09;;;;;;;3.80;2.00;;;;;;;15.87;42.63;99987.45;107238;1257;60796;-37
2023/05/05 08:55:54;;;;;;;4.60;2.00;;;;;;;15.98;41.60;99987.62;107210;1257;61511;-38
2023/05/05 08:58:22;;;;;;;2.20;1.80;;;;;;;16.04;41.67;99985.16;106938;1257;74503;-40
2023/05/05 09:00:49;;;;;;;2.60;1.80;;;;;;;16.05;42.72;99984.15;107163;1257;70631;-40
2023/05/05 09:03:17;;;;;;;3.60;1.80;;;;;;;16.12;42.28;99981.14;107168;1257;73881;-40
2023/05/05 09:05:44;;;;;;;2.60;1.70;;;;;;;16.24;42.19;99979.34;107165;1258;60634;-40
2023/05/05 09:08:12;;;;;;;4.10;2.00;;;;;;;16.42;42.25;99983.35;107209;1257;62646;-39
2023/05/05 09:10:39;;;;;;;7.30;1.70;;;;;;;16.68;41.07;99976.86;107254;1257;74346;-38
2023/05/05 09:13:07;;;;;;;3.60;1.80;;;;;;;16.81;40.68;99970.02;107270;1257;69926;-38
2023/05/05 09:15:34;;;;;;;5.00;1.60;;;;;;;16.99;41.24;99982.98;107156;1257;74582;-37
2023/05/05 09:18:02;;;;;;;2.30;1.70;;;;;;;17.11;40.91;99980.35;107155;1260;61245;-37
2023/05/05 09:20:34;;;;;;;3.30;1.80;;;;;;;17.24;40.59;99974.67;107224;1257;60477;-37
2023/05/05 09:23:18;;;;;;;1.90;1.70;;;;;;;17.30;40.48;99974.52;107291;1257;75080;-37
2023/05/05 09:25:47;;;;;;;4.80;1.80;;;;;;;17.25;40.12;99972.71;107179;1257;70044;-38
2023/05/05 09:28:15;;;;;;;2.70;1.80;;;;;;;17.22;39.90;99969.25;107108;1264;74264;-37
2023/05/05 09:30:44;;;;;;;3.20;1.90;;;;;;;17.27;39.82;99963.09;107312;1257;61795;-37
2023/05/05 09:33:12;;;;;;;3.30;1.90;;;;;;;17.38;40.14;99963.33;107277;1257;62328;-37
2023/05/05 09:35:50;;;;;;;2.20;1.80;;;;;;;17.53;39.42;99961.08;107186;1257;74977;-37
2023/05/05 09:38:23;;;;;;;2.70;2.10;;;;;;;17.66;38.30;99963.77;107241;1257;70340;-37
2023/05/05 09:40:51;;;;;;;3.90;1.70;;;;;;;17.69;37.17;99960.78;107225;1257;74219;-37
2023/05/05 09:43:21;;;;;;;2.60;1.60;;;;;;;17.73;37.31;99962.20;107231;1257;61907;-38
2023/05/05 09:45:48;;;;;;;2.50;1.60;;;;;;;17.81;37.35;99961.80;107095;1257;60829;-37
2023/05/05 09:48:42;;;;;;;2.20;1.50;;;;;;;18.00;38.15;99960.29;107251;1257;75405;-37
2023/05/05 09:51:09;;;;;;;3.30;1.50;;;;;;;18.29;37.63;99965.40;107069;1257;68696;-37
2023/05/05 09:53:40;;;;;;;2.00;1.10;;;;;;;18.50;37.40;99962.60;107160;1260;75209;-37
2023/05/05 09:56:08;;;;;;;3.60;1.40;;;;;;;18.77;35.60;99964.08;107155;1262;62631;-37
2023/05/05 09:58:35;;;;;;;4.30;1.80;;;;;;;18.94;35.01;99961.94;107037;1257;62454;-37
2023/05/05 10:01:02;;;;;;;5.90;1.70;;;;;;;18.89;35.15;99952.94;107126;1257;74479;-38
2023/05/05 10:03:29;;;;;;;4.10;1.70;;;;;;;18.75;35.14;99950.73;107180;1262;70312;-38
2023/05/05 10:05:58;;;;;;;5.00;1.90;;;;;;;18.78;36.00;99953.87;107046;1257;74907;-38
2023/05/05 10:08:30;;;;;;;2.90;1.30;;;;;;;19.00;34.80;99949.03;107207;1257;60443;-38
2023/05/05 10:10:59;;;;;;;2.00;1.40;;;;;;;19.22;33.39;99943.78;107165;1261;61970;-38
2023/05/05 10:13:27;;;;;;;4.60;1.50;;;;;;;19.35;32.39;99937.73;107050;1260;75878;-38
2023/05/05 10:15:55;;;;;;;2.20;1.30;;;;;;;19.38;32.54;99936.93;107098;1260;70131;-37
2023/05/05 10:18:23;;;;;;;2.60;1.40;;;;;;;19.45;32.27;99938.61;107042;1258;73350;-37
2023/05/05 10:20:57;;;;;;;3.30;1.50;;;;;;;19.49;32.72;99934.89;107081;1262;61726;-37
2023/05/05 10:23:38;;;;;;;2.40;1.40;;;;;;;19.56;33.15;99932.33;107070;1260;60577;-38
2023/05/05 10:26:06;;;;;;;3.00;1.90;;;;;;;19.75;33.38;99922.71;107052;1257;75174;-38
2023/05/05 10:28:43;;;;;;;2.30;1.40;;;;;;;20.01;33.47;99917.20;107042;1260;70131;-37
2023/05/05 10:31:16;;;;;;;1.60;1.20;;;;;;;20.22;32.66;99918.07;107072;1260;74983;-37
2023/05/05 10:34:02;;;;;;;2.60;1.40;;;;;;;20.41;32.05;99922.21;107041;1257;62564;-37
2023/05/05 10:36:30;;;;;;;1.80;1.30;;;;;;;20.50;31.38;99922.41;107022;1260;62127;-38
2023/05/05 10:38:58;;;;;;;2.80;1.40;;;;;;;20.61;31.08;99918.02;106974;1258;75044;-38
2023/05/05 10:41:28;;;;;;;2.00;1.40;;;;;;;20.74;30.22;99920.99;106954;1259;69070;-37
2023/05/05 10:43:58;;;;;;;3.20;1.20;;;;;;;20.90;30.65;99928.73;107011;1260;74564;-37
2023/05/05 10:46:30;;;;;;;2.70;1.50;;;;;;;21.13;29.72;99926.35;107029;1260;61802;-38
2023/05/05 10:49:16;;;;;;;1.70;1.30;;;;;;;21.46;29.21;99925.55;107041;1260;60840;-37
2023/05/05 10:51:53;;;;;;;2.50;1.30;;;;;;;21.84;28.98;99922.27;107048;1258;74563;-37
2023/05/05 10:54:29;;;;;;;1.70;1.30;;;;;;;22.08;27.63;99919.50;107054;1261;70282;-37
2023/05/05 10:56:57;;;;;;;2.70;1.30;;;;;;;22.13;28.19;99917.36;107038;1264;74695;-38
2023/05/05 10:59:36;;;;;;;3.00;1.60;;;;;;;22.23;27.70;99917.33;107088;1262;63257;-37
2023/05/05 11:02:23;;;;;;;2.60;1.60;;;;;;;22.29;27.30;99917.74;107163;1262;61844;-37
2023/05/05 11:05:13;;;;;;;2.30;1.30;;;;;;;22.50;26.70;99912.82;107215;1260;74260;-37
2023/05/05 11:07:41;;;;;;;1.60;1.30;;;;;;;22.74;27.01;99912.80;107151;1262;69462;-37
2023/05/05 11:10:12;;;;;;;2.90;1.50;;;;;;;22.88;26.25;99907.84;106989;1257;72287;-38
2023/05/05 11:12:58;;;;;;;2.90;1.20;;;;;;;22.77;26.02;99910.84;107145;1257;61426;-38
2023/05/05 11:15:26;;;;;;;3.00;1.40;;;;;;;22.69;26.30;99902.48;107052;1259;62177;-38
2023/05/05 11:17:54;;;;;;;1.60;1.30;;;;;;;22.82;26.46;99897.94;107128;1262;75294;-38
2023/05/05 11:20:34;;;;;;;3.20;1.30;;;;;;;22.91;26.27;99894.48;107199;1261;67423;-38
2023/05/05 11:23:01;;;;;;;2.30;1.70;;;;;;;22.85;26.12;99890.27;107198;1257;73449;-39
2023/05/05 11:25:37;;;;;;;2.80;1.40;;;;;;;22.75;25.90;99886.87;107137;1258;62962;-39
2023/05/05 11:28:19;;;;;;;1.50;1.30;;;;;;;22.70;26.05;99889.05;107105;1262;62537;-38
2023/05/05 11:30:59;;;;;;;2.10;1.60;;;;;;;22.52;25.45;99885.47;107164;1263;75112;-39
2023/05/05 11:33:29;;;;;;;1.50;1.10;;;;;;;22.36;26.17;99889.36;107166;1257;69763;-38
2023/05/05 11:35:57;;;;;;;2.00;1.30;;;;;;;22.31;25.99;99888.34;107073;1257;74506;-38
2023/05/05 11:38:40;;;;;;;3.10;1.60;;;;;;;22.35;25.85;99886.61;107036;1263;61086;-38